sensor_id;sensor_type;location;lat;lon;timestamp;P1;durP1;ratioP1;P2;durP2;ratioP2
26303;SDS011;57113;48.680;8.890;2022-08-19T00:00:09;13.55;;;11.07;;
26303;SDS011;57113;48.680;8.890;2022-08-19T00:02:40;15.60;;;10.25;;
26303;SDS011;57113;48.680;8.890;2022-08-19T00:05:07;12.85;;;10.82;;
26303;SDS011;57113;48.680;8.890;2022-08-19T00:07:33;15.07;;;10.63;;
26303;SDS011;57113;48.680;8.890;2022-08-19T00:09:59;13.32;;;10.57;;
26303;SDS011;57113;48.680;8.890;2022-08-19T00:12:25;14.07;;;11.07;;
26303;SDS011;57113;48.680;8.890;2022-08-19T00:14:51;14.60;;;11.05;;
26303;SDS011;57113;48.680;8.890;2022-08-19T00:17:19;13.95;;;10.93;;
26303;SDS011;57113;48.680;8.890;2022-08-19T00:19:45;13.35;;;10.77;;
26303;SDS011;57113;48.680;8.890;2022-08-19T00:22:11;13.23;;;11.07;;
26303;SDS011;57113;48.680;8.890;2022-08-19T00:24:36;13.55;;;11.23;;
26303;SDS011;57113;48.680;8.890;2022-08-19T00:27:03;15.50;;;11.43;;
26303;SDS011;57113;48.680;8.890;2022-08-19T00:29:29;15.27;;;11.27;;
26303;SDS011;57113;48.680;8.890;2022-08-19T00:31:56;12.90;;;11.25;;
26303;SDS011;57113;48.680;8.890;2022-08-19T00:34:24;18.00;;;11.68;;
26303;SDS011;57113;48.680;8.890;2022-08-19T00:36:53;14.73;;;11.60;;
26303;SDS011;57113;48.680;8.890;2022-08-19T00:39:19;15.05;;;11.48;;
26303;SDS011;57113;48.680;8.890;2022-08-19T00:41:45;15.13;;;11.93;;
26303;SDS011;57113;48.680;8.890;2022-08-19T00:44:21;15.40;;;11.95;;
26303;SDS011;57113;48.680;8.890;2022-08-19T00:46:49;17.98;;;12.77;;
26303;SDS011;57113;48.680;8.890;2022-08-19T00:52:05;14.68;;;12.13;;
26303;SDS011;57113;48.680;8.890;2022-08-19T00:54:33;19.10;;;12.30;;
26303;SDS011;57113;48.680;8.890;2022-08-19T00:57:02;14.45;;;12.25;;
26303;SDS011;57113;48.680;8.890;2022-08-19T00:59:33;16.27;;;12.73;;
26303;SDS011;57113;48.680;8.890;2022-08-19T01:02:01;16.48;;;11.90;;
26303;SDS011;57113;48.680;8.890;2022-08-19T01:04:27;15.32;;;11.85;;
26303;SDS011;57113;48.680;8.890;2022-08-19T01:06:53;15.07;;;12.27;;
26303;SDS011;57113;48.680;8.890;2022-08-19T01:09:18;14.32;;;11.77;;
26303;SDS011;57113;48.680;8.890;2022-08-19T01:11:44;13.57;;;12.18;;
26303;SDS011;57113;48.680;8.890;2022-08-19T01:14:10;20.15;;;12.07;;
26303;SDS011;57113;48.680;8.890;2022-08-19T01:16:38;17.20;;;11.90;;
26303;SDS011;57113;48.680;8.890;2022-08-19T01:19:18;15.90;;;12.23;;
26303;SDS011;57113;48.680;8.890;2022-08-19T01:21:52;16.77;;;12.40;;
26303;SDS011;57113;48.680;8.890;2022-08-19T01:24:25;17.33;;;12.50;;
26303;SDS011;57113;48.680;8.890;2022-08-19T01:26:51;16.65;;;12.68;;
26303;SDS011;57113;48.680;8.890;2022-08-19T01:29:16;16.60;;;12.23;;
26303;SDS011;57113;48.680;8.890;2022-08-19T01:31:42;16.27;;;12.18;;
26303;SDS011;57113;48.680;8.890;2022-08-19T01:34:08;14.52;;;12.20;;
26303;SDS011;57113;48.680;8.890;2022-08-19T01:36:37;15.45;;;12.40;;
26303;SDS011;57113;48.680;8.890;2022-08-19T01:39:13;15.90;;;12.80;;
26303;SDS011;57113;48.680;8.890;2022-08-19T01:41:44;20.45;;;12.43;;
26303;SDS011;57113;48.680;8.890;2022-08-19T01:44:10;15.30;;;12.73;;
26303;SDS011;57113;48.680;8.890;2022-08-19T01:46:37;19.88;;;12.88;;
26303;SDS011;57113;48.680;8.890;2022-08-19T01:49:04;19.13;;;11.80;;
26303;SDS011;57113;48.680;8.890;2022-08-19T01:51:31;15.05;;;12.20;;
26303;SDS011;57113;48.680;8.890;2022-08-19T01:53:57;17.27;;;12.15;;
26303;SDS011;57113;48.680;8.890;2022-08-19T01:56:23;14.45;;;12.18;;
26303;SDS011;57113;48.680;8.890;2022-08-19T01:58:51;14.32;;;12.23;;
26303;SDS011;57113;48.680;8.890;2022-08-19T02:01:22;17.00;;;13.35;;
26303;SDS011;57113;48.680;8.890;2022-08-19T02:03:48;17.60;;;12.77;;
26303;SDS011;57113;48.680;8.890;2022-08-19T02:06:14;14.40;;;11.88;;
26303;SDS011;57113;48.680;8.890;2022-08-19T02:08:41;15.50;;;12.48;;
26303;SDS011;57113;48.680;8.890;2022-08-19T02:11:17;16.15;;;12.25;;
26303;SDS011;57113;48.680;8.890;2022-08-19T02:13:44;14.05;;;12.10;;
26303;SDS011;57113;48.680;8.890;2022-08-19T02:16:10;15.50;;;12.40;;
26303;SDS011;57113;48.680;8.890;2022-08-19T02:18:36;14.57;;;12.57;;
26303;SDS011;57113;48.680;8.890;2022-08-19T02:21:01;15.02;;;12.00;;
26303;SDS011;57113;48.680;8.890;2022-08-19T02:23:27;14.48;;;12.00;;
26303;SDS011;57113;48.680;8.890;2022-08-19T02:25:53;16.17;;;12.15;;
26303;SDS011;57113;48.680;8.890;2022-08-19T02:28:19;17.25;;;12.35;;
26303;SDS011;57113;48.680;8.890;2022-08-19T02:30:45;13.73;;;12.10;;
26303;SDS011;57113;48.680;8.890;2022-08-19T02:33:12;17.95;;;12.50;;
26303;SDS011;57113;48.680;8.890;2022-08-19T02:35:40;18.40;;;12.60;;
26303;SDS011;57113;48.680;8.890;2022-08-19T02:38:10;16.00;;;12.55;;
26303;SDS011;57113;48.680;8.890;2022-08-19T02:40:56;15.68;;;12.68;;
26303;SDS011;57113;48.680;8.890;2022-08-19T02:43:24;17.08;;;12.23;;
26303;SDS011;57113;48.680;8.890;2022-08-19T02:45:51;13.70;;;11.73;;
26303;SDS011;57113;48.680;8.890;2022-08-19T02:48:18;16.48;;;12.20;;
26303;SDS011;57113;48.680;8.890;2022-08-19T02:50:46;17.38;;;12.30;;
26303;SDS011;57113;48.680;8.890;2022-08-19T02:53:13;17.23;;;13.00;;
26303;SDS011;57113;48.680;8.890;2022-08-19T02:55:42;18.55;;;13.18;;
26303;SDS011;57113;48.680;8.890;2022-08-19T02:58:09;15.70;;;12.48;;
26303;SDS011;57113;48.680;8.890;2022-08-19T03:00:35;20.77;;;12.98;;
26303;SDS011;57113;48.680;8.890;2022-08-19T03:03:01;14.95;;;12.23;;
26303;SDS011;57113;48.680;8.890;2022-08-19T03:05:26;16.17;;;12.77;;
26303;SDS011;57113;48.680;8.890;2022-08-19T03:07:52;17.25;;;12.85;;
26303;SDS011;57113;48.680;8.890;2022-08-19T03:10:18;19.75;;;12.75;;
26303;SDS011;57113;48.680;8.890;2022-08-19T03:12:44;17.58;;;12.95;;
26303;SDS011;57113;48.680;8.890;2022-08-19T03:15:11;16.98;;;12.52;;
26303;SDS011;57113;48.680;8.890;2022-08-19T03:17:36;18.48;;;13.00;;
26303;SDS011;57113;48.680;8.890;2022-08-19T03:20:02;18.40;;;13.25;;
26303;SDS011;57113;48.680;8.890;2022-08-19T03:22:29;19.02;;;13.38;;
26303;SDS011;57113;48.680;8.890;2022-08-19T03:24:54;16.77;;;13.30;;
26303;SDS011;57113;48.680;8.890;2022-08-19T03:27:20;15.48;;;12.82;;
26303;SDS011;57113;48.680;8.890;2022-08-19T03:29:47;20.33;;;13.57;;
26303;SDS011;57113;48.680;8.890;2022-08-19T03:32:13;17.17;;;12.73;;
26303;SDS011;57113;48.680;8.890;2022-08-19T03:34:38;15.43;;;12.75;;
26303;SDS011;57113;48.680;8.890;2022-08-19T03:37:05;20.55;;;13.40;;
26303;SDS011;57113;48.680;8.890;2022-08-19T03:39:33;16.45;;;13.00;;
26303;SDS011;57113;48.680;8.890;2022-08-19T03:42:00;15.70;;;13.32;;
26303;SDS011;57113;48.680;8.890;2022-08-19T03:44:27;17.95;;;13.45;;
26303;SDS011;57113;48.680;8.890;2022-08-19T03:46:55;18.17;;;13.93;;
26303;SDS011;57113;48.680;8.890;2022-08-19T03:49:23;16.88;;;13.80;;
26303;SDS011;57113;48.680;8.890;2022-08-19T03:51:52;17.02;;;13.05;;
26303;SDS011;57113;48.680;8.890;2022-08-19T03:54:19;16.77;;;13.68;;
26303;SDS011;57113;48.680;8.890;2022-08-19T03:56:48;17.17;;;13.55;;
26303;SDS011;57113;48.680;8.890;2022-08-19T03:59:20;16.88;;;13.95;;
26303;SDS011;57113;48.680;8.890;2022-08-19T04:01:56;20.35;;;13.88;;
26303;SDS011;57113;48.680;8.890;2022-08-19T04:04:23;16.80;;;14.35;;
26303;SDS011;57113;48.680;8.890;2022-08-19T04:06:50;16.40;;;14.57;;
26303;SDS011;57113;48.680;8.890;2022-08-19T04:09:17;16.80;;;14.25;;
26303;SDS011;57113;48.680;8.890;2022-08-19T04:11:45;18.52;;;13.90;;
26303;SDS011;57113;48.680;8.890;2022-08-19T04:14:19;17.65;;;13.98;;
26303;SDS011;57113;48.680;8.890;2022-08-19T04:16:47;16.35;;;14.10;;
26303;SDS011;57113;48.680;8.890;2022-08-19T04:19:14;17.05;;;14.32;;
26303;SDS011;57113;48.680;8.890;2022-08-19T04:21:42;19.42;;;15.23;;
26303;SDS011;57113;48.680;8.890;2022-08-19T04:24:10;17.58;;;14.07;;
26303;SDS011;57113;48.680;8.890;2022-08-19T04:26:36;20.98;;;14.63;;
26303;SDS011;57113;48.680;8.890;2022-08-19T04:29:14;18.63;;;15.15;;
26303;SDS011;57113;48.680;8.890;2022-08-19T04:31:44;18.13;;;14.40;;
26303;SDS011;57113;48.680;8.890;2022-08-19T04:34:11;18.27;;;14.40;;
26303;SDS011;57113;48.680;8.890;2022-08-19T04:36:38;17.52;;;14.25;;
26303;SDS011;57113;48.680;8.890;2022-08-19T04:39:11;20.15;;;15.25;;
26303;SDS011;57113;48.680;8.890;2022-08-19T04:41:39;19.83;;;14.95;;
26303;SDS011;57113;48.680;8.890;2022-08-19T04:44:24;19.85;;;14.18;;
26303;SDS011;57113;48.680;8.890;2022-08-19T04:46:50;18.20;;;14.10;;
26303;SDS011;57113;48.680;8.890;2022-08-19T04:49:16;17.17;;;14.82;;
26303;SDS011;57113;48.680;8.890;2022-08-19T04:51:45;18.85;;;14.75;;
26303;SDS011;57113;48.680;8.890;2022-08-19T04:54:15;20.45;;;14.95;;
26303;SDS011;57113;48.680;8.890;2022-08-19T04:56:42;18.88;;;15.43;;
26303;SDS011;57113;48.680;8.890;2022-08-19T04:59:08;19.65;;;14.75;;
26303;SDS011;57113;48.680;8.890;2022-08-19T05:01:35;18.83;;;15.27;;
26303;SDS011;57113;48.680;8.890;2022-08-19T05:04:03;20.27;;;15.52;;
26303;SDS011;57113;48.680;8.890;2022-08-19T05:06:29;22.60;;;15.50;;
26303;SDS011;57113;48.680;8.890;2022-08-19T05:08:58;19.63;;;14.68;;
26303;SDS011;57113;48.680;8.890;2022-08-19T05:11:26;19.40;;;14.98;;
26303;SDS011;57113;48.680;8.890;2022-08-19T05:13:54;19.10;;;15.40;;
26303;SDS011;57113;48.680;8.890;2022-08-19T05:16:21;18.42;;;15.00;;
26303;SDS011;57113;48.680;8.890;2022-08-19T05:18:48;20.05;;;15.15;;
26303;SDS011;57113;48.680;8.890;2022-08-19T05:24:17;20.40;;;15.32;;
26303;SDS011;57113;48.680;8.890;2022-08-19T05:26:50;28.40;;;15.15;;
26303;SDS011;57113;48.680;8.890;2022-08-19T05:29:20;17.45;;;14.70;;
26303;SDS011;57113;48.680;8.890;2022-08-19T05:31:47;17.27;;;14.52;;
26303;SDS011;57113;48.680;8.890;2022-08-19T05:34:15;18.13;;;14.27;;
26303;SDS011;57113;48.680;8.890;2022-08-19T05:36:42;19.50;;;15.25;;
26303;SDS011;57113;48.680;8.890;2022-08-19T05:39:10;17.92;;;14.35;;
26303;SDS011;57113;48.680;8.890;2022-08-19T05:41:44;21.92;;;14.95;;
26303;SDS011;57113;48.680;8.890;2022-08-19T05:44:11;18.40;;;15.23;;
26303;SDS011;57113;48.680;8.890;2022-08-19T05:46:38;21.52;;;16.45;;
26303;SDS011;57113;48.680;8.890;2022-08-19T05:49:05;15.80;;;13.70;;
26303;SDS011;57113;48.680;8.890;2022-08-19T05:51:32;17.25;;;14.73;;
26303;SDS011;57113;48.680;8.890;2022-08-19T05:54:01;23.70;;;15.27;;
26303;SDS011;57113;48.680;8.890;2022-08-19T05:56:27;17.48;;;13.93;;
26303;SDS011;57113;48.680;8.890;2022-08-19T05:58:54;19.77;;;15.10;;
26303;SDS011;57113;48.680;8.890;2022-08-19T06:01:20;19.10;;;14.45;;
26303;SDS011;57113;48.680;8.890;2022-08-19T06:03:46;16.55;;;14.48;;
26303;SDS011;57113;48.680;8.890;2022-08-19T06:06:13;17.50;;;15.07;;
26303;SDS011;57113;48.680;8.890;2022-08-19T06:08:40;19.45;;;14.35;;
26303;SDS011;57113;48.680;8.890;2022-08-19T06:11:15;21.30;;;14.40;;
26303;SDS011;57113;48.680;8.890;2022-08-19T06:13:41;22.40;;;14.27;;
26303;SDS011;57113;48.680;8.890;2022-08-19T06:16:07;18.98;;;14.20;;
26303;SDS011;57113;48.680;8.890;2022-08-19T06:18:32;20.42;;;14.50;;
26303;SDS011;57113;48.680;8.890;2022-08-19T06:20:58;18.30;;;13.57;;
26303;SDS011;57113;48.680;8.890;2022-08-19T06:23:25;16.27;;;14.23;;
26303;SDS011;57113;48.680;8.890;2022-08-19T06:25:51;20.15;;;15.88;;
26303;SDS011;57113;48.680;8.890;2022-08-19T06:28:16;19.13;;;14.85;;
26303;SDS011;57113;48.680;8.890;2022-08-19T06:30:42;17.33;;;14.38;;
26303;SDS011;57113;48.680;8.890;2022-08-19T06:33:08;24.13;;;14.93;;
26303;SDS011;57113;48.680;8.890;2022-08-19T06:35:38;21.10;;;14.82;;
26303;SDS011;57113;48.680;8.890;2022-08-19T06:38:04;17.60;;;14.55;;
26303;SDS011;57113;48.680;8.890;2022-08-19T06:40:30;20.27;;;15.20;;
26303;SDS011;57113;48.680;8.890;2022-08-19T06:42:56;19.08;;;14.98;;
26303;SDS011;57113;48.680;8.890;2022-08-19T06:45:23;15.50;;;13.68;;
26303;SDS011;57113;48.680;8.890;2022-08-19T06:47:49;20.05;;;14.77;;
26303;SDS011;57113;48.680;8.890;2022-08-19T06:50:15;15.93;;;14.23;;
26303;SDS011;57113;48.680;8.890;2022-08-19T06:52:40;16.13;;;13.07;;
26303;SDS011;57113;48.680;8.890;2022-08-19T06:55:06;17.05;;;13.40;;
26303;SDS011;57113;48.680;8.890;2022-08-19T06:57:32;15.85;;;13.18;;
26303;SDS011;57113;48.680;8.890;2022-08-19T06:59:58;17.60;;;13.95;;
26303;SDS011;57113;48.680;8.890;2022-08-19T07:02:25;14.90;;;12.38;;
26303;SDS011;57113;48.680;8.890;2022-08-19T07:04:51;14.75;;;12.93;;
26303;SDS011;57113;48.680;8.890;2022-08-19T07:07:19;15.65;;;11.85;;
26303;SDS011;57113;48.680;8.890;2022-08-19T07:09:45;18.40;;;12.65;;
26303;SDS011;57113;48.680;8.890;2022-08-19T07:12:12;14.35;;;12.15;;
26303;SDS011;57113;48.680;8.890;2022-08-19T07:14:42;15.68;;;11.88;;
26303;SDS011;57113;48.680;8.890;2022-08-19T07:17:08;16.67;;;12.35;;
26303;SDS011;57113;48.680;8.890;2022-08-19T07:19:36;15.50;;;11.73;;
26303;SDS011;57113;48.680;8.890;2022-08-19T07:22:04;14.85;;;11.27;;
26303;SDS011;57113;48.680;8.890;2022-08-19T07:24:31;12.57;;;11.07;;
26303;SDS011;57113;48.680;8.890;2022-08-19T07:26:58;14.23;;;11.15;;
26303;SDS011;57113;48.680;8.890;2022-08-19T07:29:27;14.43;;;11.40;;
26303;SDS011;57113;48.680;8.890;2022-08-19T07:31:54;17.05;;;12.25;;
26303;SDS011;57113;48.680;8.890;2022-08-19T07:34:22;18.88;;;11.52;;
26303;SDS011;57113;48.680;8.890;2022-08-19T07:36:49;14.45;;;10.93;;
26303;SDS011;57113;48.680;8.890;2022-08-19T07:39:17;16.88;;;10.80;;
26303;SDS011;57113;48.680;8.890;2022-08-19T07:41:55;15.90;;;10.07;;
26303;SDS011;57113;48.680;8.890;2022-08-19T07:44:22;11.93;;;9.13;;
26303;SDS011;57113;48.680;8.890;2022-08-19T07:46:50;14.10;;;10.25;;
26303;SDS011;57113;48.680;8.890;2022-08-19T07:49:18;10.45;;;9.05;;
26303;SDS011;57113;48.680;8.890;2022-08-19T07:51:50;11.88;;;10.05;;
26303;SDS011;57113;48.680;8.890;2022-08-19T07:54:17;16.63;;;12.52;;
26303;SDS011;57113;48.680;8.890;2022-08-19T07:56:44;14.20;;;10.95;;
26303;SDS011;57113;48.680;8.890;2022-08-19T07:59:10;13.60;;;10.80;;
26303;SDS011;57113;48.680;8.890;2022-08-19T08:01:36;15.70;;;9.93;;
26303;SDS011;57113;48.680;8.890;2022-08-19T08:04:04;15.52;;;9.57;;
26303;SDS011;57113;48.680;8.890;2022-08-19T08:06:50;19.90;;;9.32;;
26303;SDS011;57113;48.680;8.890;2022-08-19T08:09:37;11.68;;;9.48;;
26303;SDS011;57113;48.680;8.890;2022-08-19T08:12:08;10.95;;;9.15;;
26303;SDS011;57113;48.680;8.890;2022-08-19T08:14:44;12.15;;;9.43;;
26303;SDS011;57113;48.680;8.890;2022-08-19T08:17:12;11.73;;;9.27;;
26303;SDS011;57113;48.680;8.890;2022-08-19T08:19:40;10.75;;;9.45;;
26303;SDS011;57113;48.680;8.890;2022-08-19T08:22:07;11.35;;;9.15;;
26303;SDS011;57113;48.680;8.890;2022-08-19T08:24:53;11.23;;;8.75;;
26303;SDS011;57113;48.680;8.890;2022-08-19T08:27:19;10.02;;;8.52;;
26303;SDS011;57113;48.680;8.890;2022-08-19T08:29:45;11.30;;;8.52;;
26303;SDS011;57113;48.680;8.890;2022-08-19T08:32:11;12.75;;;8.68;;
26303;SDS011;57113;48.680;8.890;2022-08-19T08:34:36;10.93;;;8.55;;
26303;SDS011;57113;48.680;8.890;2022-08-19T08:37:02;9.35;;;8.18;;
26303;SDS011;57113;48.680;8.890;2022-08-19T08:39:28;9.70;;;8.75;;
26303;SDS011;57113;48.680;8.890;2022-08-19T08:42:05;10.20;;;8.00;;
26303;SDS011;57113;48.680;8.890;2022-08-19T08:47:23;9.27;;;8.38;;
26303;SDS011;57113;48.680;8.890;2022-08-19T08:54:49;9.25;;;8.07;;
26303;SDS011;57113;48.680;8.890;2022-08-19T08:57:29;13.25;;;8.65;;
26303;SDS011;57113;48.680;8.890;2022-08-19T09:00:04;9.43;;;7.80;;
26303;SDS011;57113;48.680;8.890;2022-08-19T09:02:33;8.48;;;7.38;;
26303;SDS011;57113;48.680;8.890;2022-08-19T09:04:59;11.90;;;8.63;;
26303;SDS011;57113;48.680;8.890;2022-08-19T09:10:09;8.60;;;7.80;;
26303;SDS011;57113;48.680;8.890;2022-08-19T09:12:53;8.88;;;7.90;;
26303;SDS011;57113;48.680;8.890;2022-08-19T09:15:29;9.90;;;8.07;;
26303;SDS011;57113;48.680;8.890;2022-08-19T09:18:00;8.77;;;7.88;;
26303;SDS011;57113;48.680;8.890;2022-08-19T09:20:27;8.77;;;7.88;;
26303;SDS011;57113;48.680;8.890;2022-08-19T09:22:53;9.75;;;7.63;;
26303;SDS011;57113;48.680;8.890;2022-08-19T09:25:21;8.52;;;7.65;;
26303;SDS011;57113;48.680;8.890;2022-08-19T09:27:47;8.80;;;7.72;;
26303;SDS011;57113;48.680;8.890;2022-08-19T09:30:24;8.52;;;7.68;;
26303;SDS011;57113;48.680;8.890;2022-08-19T09:32:51;10.23;;;7.50;;
26303;SDS011;57113;48.680;8.890;2022-08-19T09:35:19;8.55;;;7.63;;
26303;SDS011;57113;48.680;8.890;2022-08-19T09:37:47;8.27;;;7.47;;
26303;SDS011;57113;48.680;8.890;2022-08-19T09:40:14;8.68;;;7.65;;
26303;SDS011;57113;48.680;8.890;2022-08-19T09:42:40;9.15;;;7.85;;
26303;SDS011;57113;48.680;8.890;2022-08-19T09:45:08;9.55;;;7.70;;
26303;SDS011;57113;48.680;8.890;2022-08-19T09:47:35;8.45;;;7.28;;
26303;SDS011;57113;48.680;8.890;2022-08-19T09:50:03;8.30;;;7.50;;
26303;SDS011;57113;48.680;8.890;2022-08-19T09:52:32;9.80;;;7.93;;
26303;SDS011;57113;48.680;8.890;2022-08-19T09:54:58;8.30;;;7.30;;
26303;SDS011;57113;48.680;8.890;2022-08-19T09:57:24;9.95;;;7.80;;
26303;SDS011;57113;48.680;8.890;2022-08-19T09:59:49;8.52;;;7.60;;
26303;SDS011;57113;48.680;8.890;2022-08-19T10:02:15;8.20;;;7.40;;
26303;SDS011;57113;48.680;8.890;2022-08-19T10:04:41;8.90;;;7.78;;
26303;SDS011;57113;48.680;8.890;2022-08-19T10:07:25;9.02;;;8.13;;
26303;SDS011;57113;48.680;8.890;2022-08-19T10:09:51;9.88;;;7.90;;
26303;SDS011;57113;48.680;8.890;2022-08-19T10:12:16;8.88;;;7.97;;
26303;SDS011;57113;48.680;8.890;2022-08-19T10:14:42;8.63;;;7.82;;
26303;SDS011;57113;48.680;8.890;2022-08-19T10:17:08;8.23;;;7.43;;
26303;SDS011;57113;48.680;8.890;2022-08-19T10:19:34;8.57;;;7.57;;
26303;SDS011;57113;48.680;8.890;2022-08-19T10:22:04;9.65;;;7.25;;
26303;SDS011;57113;48.680;8.890;2022-08-19T10:24:32;8.20;;;7.07;;
26303;SDS011;57113;48.680;8.890;2022-08-19T10:26:59;8.02;;;7.22;;
26303;SDS011;57113;48.680;8.890;2022-08-19T10:29:26;8.15;;;7.35;;
26303;SDS011;57113;48.680;8.890;2022-08-19T10:31:53;8.13;;;7.32;;
26303;SDS011;57113;48.680;8.890;2022-08-19T10:34:19;8.55;;;7.65;;
26303;SDS011;57113;48.680;8.890;2022-08-19T10:36:44;9.48;;;6.97;;
26303;SDS011;57113;48.680;8.890;2022-08-19T10:39:10;7.40;;;6.70;;
26303;SDS011;57113;48.680;8.890;2022-08-19T10:41:38;8.70;;;7.80;;
26303;SDS011;57113;48.680;8.890;2022-08-19T10:44:06;8.85;;;7.57;;
26303;SDS011;57113;48.680;8.890;2022-08-19T10:46:34;8.32;;;7.47;;
26303;SDS011;57113;48.680;8.890;2022-08-19T10:49:02;7.40;;;6.57;;
26303;SDS011;57113;48.680;8.890;2022-08-19T10:51:30;8.93;;;6.72;;
26303;SDS011;57113;48.680;8.890;2022-08-19T10:54:15;8.30;;;7.22;;
26303;SDS011;57113;48.680;8.890;2022-08-19T10:56:41;8.70;;;7.30;;
26303;SDS011;57113;48.680;8.890;2022-08-19T10:59:26;7.97;;;7.13;;
26303;SDS011;57113;48.680;8.890;2022-08-19T11:02:00;8.75;;;6.78;;
26303;SDS011;57113;48.680;8.890;2022-08-19T11:04:26;7.90;;;7.10;;
26303;SDS011;57113;48.680;8.890;2022-08-19T11:06:53;7.57;;;6.40;;
26303;SDS011;57113;48.680;8.890;2022-08-19T11:09:21;9.13;;;7.28;;
26303;SDS011;57113;48.680;8.890;2022-08-19T11:11:52;7.50;;;6.72;;
26303;SDS011;57113;48.680;8.890;2022-08-19T11:14:18;7.70;;;6.88;;
26303;SDS011;57113;48.680;8.890;2022-08-19T11:16:45;7.75;;;6.95;;
26303;SDS011;57113;48.680;8.890;2022-08-19T11:19:12;8.38;;;5.95;;
26303;SDS011;57113;48.680;8.890;2022-08-19T11:21:41;8.32;;;7.13;;
26303;SDS011;57113;48.680;8.890;2022-08-19T11:24:10;7.80;;;6.53;;
26303;SDS011;57113;48.680;8.890;2022-08-19T11:26:40;7.47;;;6.60;;
26303;SDS011;57113;48.680;8.890;2022-08-19T11:29:07;7.63;;;6.93;;
26303;SDS011;57113;48.680;8.890;2022-08-19T11:31:39;7.00;;;6.30;;
26303;SDS011;57113;48.680;8.890;2022-08-19T11:34:07;8.15;;;6.25;;
26303;SDS011;57113;48.680;8.890;2022-08-19T11:36:37;7.47;;;6.40;;
26303;SDS011;57113;48.680;8.890;2022-08-19T11:39:07;8.38;;;6.32;;
26303;SDS011;57113;48.680;8.890;2022-08-19T11:41:33;7.50;;;6.60;;
26303;SDS011;57113;48.680;8.890;2022-08-19T11:43:59;6.72;;;5.88;;
26303;SDS011;57113;48.680;8.890;2022-08-19T11:46:25;6.55;;;5.93;;
26303;SDS011;57113;48.680;8.890;2022-08-19T11:48:54;7.50;;;6.32;;
26303;SDS011;57113;48.680;8.890;2022-08-19T11:51:22;12.00;;;6.07;;
26303;SDS011;57113;48.680;8.890;2022-08-19T11:53:50;10.75;;;5.93;;
26303;SDS011;57113;48.680;8.890;2022-08-19T11:56:16;12.02;;;5.88;;
26303;SDS011;57113;48.680;8.890;2022-08-19T11:58:43;7.68;;;5.63;;
26303;SDS011;57113;48.680;8.890;2022-08-19T12:01:10;12.02;;;5.68;;
26303;SDS011;57113;48.680;8.890;2022-08-19T12:03:37;12.95;;;5.57;;
26303;SDS011;57113;48.680;8.890;2022-08-19T12:06:05;12.70;;;6.05;;
26303;SDS011;57113;48.680;8.890;2022-08-19T12:08:36;7.57;;;5.57;;
26303;SDS011;57113;48.680;8.890;2022-08-19T12:11:03;8.55;;;5.05;;
26303;SDS011;57113;48.680;8.890;2022-08-19T12:13:30;10.00;;;5.40;;
26303;SDS011;57113;48.680;8.890;2022-08-19T12:15:56;6.82;;;5.40;;
26303;SDS011;57113;48.680;8.890;2022-08-19T12:18:23;8.85;;;5.65;;
26303;SDS011;57113;48.680;8.890;2022-08-19T12:20:50;15.98;;;5.20;;
26303;SDS011;57113;48.680;8.890;2022-08-19T12:23:17;9.18;;;5.22;;
26303;SDS011;57113;48.680;8.890;2022-08-19T12:25:44;8.00;;;4.93;;
26303;SDS011;57113;48.680;8.890;2022-08-19T12:28:15;9.77;;;5.35;;
26303;SDS011;57113;48.680;8.890;2022-08-19T12:30:41;6.18;;;5.57;;
26303;SDS011;57113;48.680;8.890;2022-08-19T12:33:07;8.52;;;4.97;;
26303;SDS011;57113;48.680;8.890;2022-08-19T12:35:33;9.60;;;5.05;;
26303;SDS011;57113;48.680;8.890;2022-08-19T12:37:59;7.72;;;4.95;;
26303;SDS011;57113;48.680;8.890;2022-08-19T12:40:26;8.80;;;5.18;;
26303;SDS011;57113;48.680;8.890;2022-08-19T12:42:52;7.25;;;5.00;;
26303;SDS011;57113;48.680;8.890;2022-08-19T12:45:18;5.00;;;4.13;;
26303;SDS011;57113;48.680;8.890;2022-08-19T12:47:44;5.93;;;4.68;;
26303;SDS011;57113;48.680;8.890;2022-08-19T12:50:11;5.57;;;4.45;;
26303;SDS011;57113;48.680;8.890;2022-08-19T12:52:37;5.43;;;4.50;;
26303;SDS011;57113;48.680;8.890;2022-08-19T12:55:03;4.35;;;3.90;;
26303;SDS011;57113;48.680;8.890;2022-08-19T12:57:31;5.00;;;4.45;;
26303;SDS011;57113;48.680;8.890;2022-08-19T13:00:00;6.72;;;4.70;;
26303;SDS011;57113;48.680;8.890;2022-08-19T13:02:34;7.45;;;4.60;;
26303;SDS011;57113;48.680;8.890;2022-08-19T13:05:00;5.15;;;4.15;;
26303;SDS011;57113;48.680;8.890;2022-08-19T13:07:26;5.78;;;4.65;;
26303;SDS011;57113;48.680;8.890;2022-08-19T13:09:52;6.10;;;4.55;;
26303;SDS011;57113;48.680;8.890;2022-08-19T13:12:18;5.47;;;4.40;;
26303;SDS011;57113;48.680;8.890;2022-08-19T13:14:45;5.05;;;4.55;;
26303;SDS011;57113;48.680;8.890;2022-08-19T13:17:16;5.07;;;3.90;;
26303;SDS011;57113;48.680;8.890;2022-08-19T13:19:41;5.10;;;4.50;;
26303;SDS011;57113;48.680;8.890;2022-08-19T13:22:07;6.07;;;4.15;;
26303;SDS011;57113;48.680;8.890;2022-08-19T13:24:32;7.45;;;4.63;;
26303;SDS011;57113;48.680;8.890;2022-08-19T13:26:59;8.32;;;4.30;;
26303;SDS011;57113;48.680;8.890;2022-08-19T13:29:25;5.10;;;4.35;;
26303;SDS011;57113;48.680;8.890;2022-08-19T13:34:54;5.78;;;4.32;;
26303;SDS011;57113;48.680;8.890;2022-08-19T13:37:21;5.07;;;4.57;;
26303;SDS011;57113;48.680;8.890;2022-08-19T13:40:07;6.28;;;4.65;;
26303;SDS011;57113;48.680;8.890;2022-08-19T13:42:37;5.43;;;4.60;;
26303;SDS011;57113;48.680;8.890;2022-08-19T13:45:04;5.93;;;4.63;;
26303;SDS011;57113;48.680;8.890;2022-08-19T13:47:31;6.03;;;4.28;;
26303;SDS011;57113;48.680;8.890;2022-08-19T13:49:59;4.90;;;4.50;;
26303;SDS011;57113;48.680;8.890;2022-08-19T13:52:27;4.53;;;4.13;;
26303;SDS011;57113;48.680;8.890;2022-08-19T13:54:53;5.10;;;4.57;;
26303;SDS011;57113;48.680;8.890;2022-08-19T13:57:19;6.15;;;4.53;;
26303;SDS011;57113;48.680;8.890;2022-08-19T13:59:45;6.10;;;4.63;;
26303;SDS011;57113;48.680;8.890;2022-08-19T14:02:10;5.50;;;4.57;;
26303;SDS011;57113;48.680;8.890;2022-08-19T14:04:36;6.03;;;4.60;;
26303;SDS011;57113;48.680;8.890;2022-08-19T14:07:02;5.20;;;4.70;;
26303;SDS011;57113;48.680;8.890;2022-08-19T14:09:29;5.32;;;4.63;;
26303;SDS011;57113;48.680;8.890;2022-08-19T14:11:55;6.38;;;4.45;;
26303;SDS011;57113;48.680;8.890;2022-08-19T14:14:21;5.18;;;4.45;;
26303;SDS011;57113;48.680;8.890;2022-08-19T14:16:47;6.72;;;4.65;;
26303;SDS011;57113;48.680;8.890;2022-08-19T14:19:13;5.10;;;4.60;;
26303;SDS011;57113;48.680;8.890;2022-08-19T14:21:39;5.15;;;4.65;;
26303;SDS011;57113;48.680;8.890;2022-08-19T14:24:06;6.40;;;4.95;;
26303;SDS011;57113;48.680;8.890;2022-08-19T14:26:32;4.70;;;4.30;;
26303;SDS011;57113;48.680;8.890;2022-08-19T14:28:58;5.80;;;4.85;;
26303;SDS011;57113;48.680;8.890;2022-08-19T14:31:23;4.38;;;3.97;;
26303;SDS011;57113;48.680;8.890;2022-08-19T14:33:50;5.32;;;4.75;;
26303;SDS011;57113;48.680;8.890;2022-08-19T14:36:17;5.15;;;4.55;;
26303;SDS011;57113;48.680;8.890;2022-08-19T14:38:44;5.72;;;4.50;;
26303;SDS011;57113;48.680;8.890;2022-08-19T14:41:11;5.15;;;4.55;;
26303;SDS011;57113;48.680;8.890;2022-08-19T14:43:41;6.45;;;4.88;;
26303;SDS011;57113;48.680;8.890;2022-08-19T14:46:07;6.75;;;4.38;;
26303;SDS011;57113;48.680;8.890;2022-08-19T14:48:35;5.05;;;4.35;;
26303;SDS011;57113;48.680;8.890;2022-08-19T14:51:03;5.15;;;4.50;;
26303;SDS011;57113;48.680;8.890;2022-08-19T14:53:29;6.43;;;4.50;;
26303;SDS011;57113;48.680;8.890;2022-08-19T14:55:55;4.82;;;4.43;;